ADDS METAR Data INFO
IDs: Format: Raw Decoded Include TAF

Data at: 1153 UTC 23 Jun 2018

KLLJ 231055Z AUTO 00000KT 10SM OVC070 12/09 A3001 RMK AO2 SLP106 T01170089
KLLJ 230955Z AUTO 30004KT 10SM SCT070 12/09 A3002 RMK AO2 SLP108 T01170094
KLLJ 230855Z AUTO 34004KT 10SM FEW100 14/09 A3002 RMK AO2 SLP105 T01390094 50003
KLLJ 230755Z AUTO 30006KT 10SM OVC060 14/10 A3003 RMK AO2 SLP111 T01440100
KLLJ 230655Z AUTO 31009KT 10SM BKN055 OVC090 16/09 A3004 RMK AO2 SLP115 T01560094 402610106
KLLJ 230555Z AUTO VRB05KT 10SM FEW065 OVC080 16/09 A3001 RMK AO2 RAB29E51 SLP105 P0000 60000 T01560089 10256 20144 50016
KLLJ 230455Z AUTO 31011KT 10SM FEW012 BKN100 BKN120 15/09 A3003 RMK AO2 PK WND 28039/0421 LTG DSNT NE AND E RAB14E45 SLP112 P0000 T01500089
KLLJ 230410Z AUTO 27013G19KT 10SM VCTS FEW070 OVC100 22/05 A2998 RMK AO2 LTG DSNT W-NE T02170050
KLLJ 230355Z AUTO 00000KT 10SM OVC090 21/09 A2996 RMK AO2 LTG DSNT W AND NW SLP082 T02060089
KLLJ 230255Z AUTO 00000KT 10SM FEW100 FEW120 22/07 A2996 RMK AO2 SLP084 T02220067 58011
KLLJ 230155Z AUTO 32005KT 10SM FEW090 23/08 A2997 RMK AO2 SLP090 T02330078
KLLJ 230055Z AUTO 29007KT 10SM CLR 25/05 A2998 RMK AO2 SLP093 T02500050
KLLJ 222355Z AUTO 26013KT 10SM BKN090 OVC110 24/05 A3000 RMK AO2 RAE2258 SLP103 P0000 60000 T02440050 10261 20217 56016
KLLJ 222255Z AUTO 07006KT 10SM -RA FEW031 BKN090 BKN120 26/06 A3001 RMK AO2 RAB44 SLP103 P0000 T02560061
KLLJ 222155Z AUTO VRB06KT 10SM SCT100 26/05 A3003 RMK AO2 SLP105 T02610050
KLLJ 222055Z AUTO 14007KT 10SM CLR 26/06 A3005 RMK AO2 SLP112 T02560056 58019
KLLJ 221955Z AUTO 12009KT 10SM FEW090 24/06 A3008 RMK AO2 SLP122 T02440061
KLLJ 221855Z AUTO 14009KT 10SM SCT065 BKN090 23/07 A3010 RMK AO2 SLP134 T02280067
KLLJ 221755Z AUTO 14006KT 10SM SCT070 22/08 A3012 RMK AO2 SLP139 T02220078 10228 20106 58015
KLLJ 221655Z AUTO 14007KT 10SM CLR 21/07 A3014 RMK AO2 SLP149 T02110072
KLLJ 221555Z AUTO 13006KT 10SM BKN060 19/09 A3016 RMK AO2 SLP157 T01940089
KLLJ 221455Z AUTO 18003KT 10SM SCT060 16/09 A3017 RMK AO2 SLP165 T01610089 51004
KLLJ 221355Z AUTO 00000KT 10SM FEW055 15/09 A3016 RMK AO2 SLP162 T01500094
KLLJ 221255Z AUTO 33003KT 10SM SCT055 14/09 A3016 RMK AO2 SLP161 T01390089
KLLJ 221155Z AUTO 34004KT 10SM FEW055 11/09 A3015 RMK AO2 SLP163 70003 T01110089 10167 20111 51007
KLLJ 221055Z AUTO 00000KT 10SM FEW055 12/08 A3014 RMK AO2 SLP155 T01170083
KLLJ 220955Z AUTO 00000KT 10SM FEW055 13/09 A3014 RMK AO2 SLP153 T01330094
KLLJ 220855Z AUTO 21003KT 10SM CLR 15/09 A3013 RMK AO2 SLP145 T01500094 50001
KLLJ 220755Z AUTO 34004KT 10SM BKN060 16/08 A3014 RMK AO2 SLP148 T01610083
KLLJ 220655Z AUTO 32003KT 10SM FEW085 FEW120 16/09 A3013 RMK AO2 SLP151 T01560089 402500106
KLLJ 220555Z AUTO 34005KT 10SM FEW055 OVC080 16/09 A3013 RMK AO2 SLP152 60000 T01610094 10222 20156 51012
KLLJ 220455Z AUTO 31005KT 10SM BKN065 OVC080 17/09 A3012 RMK AO2 RAB35E55 SLP151 P0000 T01670089
KLLJ 220355Z AUTO 35006KT 10SM OVC060 18/08 A3011 RMK AO2 SLP140 T01780078
KLLJ 220255Z AUTO 36009KT 10SM BKN075 18/08 A3009 RMK AO2 SLP134 T01830083 52015
KLLJ 220155Z AUTO 32008KT 10SM BKN090 BKN110 20/07 A3007 RMK AO2 SLP129 T02000072
KLLJ 220055Z AUTO 30009G21KT 10SM OVC100 21/06 A3005 RMK AO2 PK WND 27028/0016 SLP127 T02110061
KLLJ 212355Z AUTO 31016G25KT 10SM BKN120 21/07 A3004 RMK AO2 LTG DSNT N AND NE SLP123 60000 T02110067 10250 20172 53001